Time;durP1;ratioP1;P1;durP2;ratioP2;P2;SDS_P1;SDS_P2;PMS_P1;PMS_P2;Temp;Humidity;BMP_temperature;BMP_pressure;BME280_temperature;BME280_humidity;BME280_pressure;Samples;Min_cycle;Max_cycle;Signal;HPM_P1;HPM_P2
2021/08/28 00:01:39;;;;;;;16.03;7.50;;;;;;;;;;5032612;28;20030;-83
2021/08/28 00:04:04;;;;;;;21.58;8.50;;;;;;;;;;5032811;28;20030;-82
2021/08/28 00:06:29;;;;;;;11.67;7.20;;;;;;;;;;5029883;28;20022;-82
2021/08/28 00:08:55;;;;;;;19.52;7.65;;;;;;;;;;5031163;28;20248;-82
2021/08/28 00:11:20;;;;;;;13.60;6.95;;;;;;;;;;5030422;28;20095;-82
2021/08/28 00:13:46;;;;;;;14.07;7.03;;;;;;;;;;5032763;28;20048;-82
2021/08/28 00:16:11;;;;;;;11.75;6.25;;;;;;;;;;5033117;28;20103;-82
2021/08/28 00:18:36;;;;;;;11.95;6.22;;;;;;;;;;5034144;28;20095;-82
2021/08/28 00:21:02;;;;;;;13.52;6.38;;;;;;;;;;5038630;28;20570;-83
2021/08/28 00:23:27;;;;;;;15.20;7.47;;;;;;;;;;5038720;28;20028;-83
2021/08/28 00:25:53;;;;;;;16.08;7.45;;;;;;;;;;5036150;28;20477;-83
2021/08/28 00:28:18;;;;;;;11.52;6.93;;;;;;;;;;5036464;28;20031;-83
2021/08/28 00:30:43;;;;;;;19.20;7.07;;;;;;;;;;5035653;28;20036;-83
2021/08/28 00:33:12;;;;;;;17.10;7.37;;;;;;;;;;5032956;28;20025;-83
2021/08/28 00:35:38;;;;;;;12.20;7.20;;;;;;;;;;5033654;28;20651;-82
2021/08/28 00:38:03;;;;;;;11.77;7.40;;;;;;;;;;5033610;28;20056;-82
2021/08/28 00:40:28;;;;;;;13.55;6.75;;;;;;;;;;5033213;28;20029;-82
2021/08/28 00:42:53;;;;;;;25.03;7.50;;;;;;;;;;5039831;28;20032;-83
2021/08/28 00:45:21;;;;;;;12.40;6.63;;;;;;;;;;5038117;28;20375;-83
2021/08/28 00:47:48;;;;;;;15.65;6.75;;;;;;;;;;5037424;28;20014;-83
2021/08/28 00:50:13;;;;;;;12.02;5.70;;;;;;;;;;5036048;28;20041;-83
2021/08/28 00:52:39;;;;;;;9.50;6.50;;;;;;;;;;5034837;28;20075;-82
2021/08/28 00:55:04;;;;;;;13.03;6.50;;;;;;;;;;5034518;28;20071;-82
2021/08/28 00:57:29;;;;;;;13.57;7.00;;;;;;;;;;5031719;28;20842;-83
2021/08/28 00:59:54;;;;;;;14.17;6.73;;;;;;;;;;5033152;28;20021;-82
2021/08/28 01:02:21;;;;;;;10.93;6.40;;;;;;;;;;5033797;28;20287;-83
2021/08/28 01:04:59;;;;;;;15.50;6.70;;;;;;;;;;5036788;28;20029;-83
2021/08/28 01:07:35;;;;;;;13.93;6.88;;;;;;;;;;5036157;28;20025;-83
2021/08/28 01:10:02;;;;;;;16.40;6.80;;;;;;;;;;5036248;28;20025;-84
2021/08/28 01:12:35;;;;;;;17.05;6.93;;;;;;;;;;5034759;28;20497;-83
2021/08/28 01:15:08;;;;;;;16.48;6.55;;;;;;;;;;5034109;28;20075;-84
2021/08/28 01:17:34;;;;;;;17.92;7.43;;;;;;;;;;5033203;28;20128;-84
2021/08/28 01:20:02;;;;;;;11.40;6.70;;;;;;;;;;5033272;28;20036;-84
2021/08/28 01:22:29;;;;;;;11.23;6.50;;;;;;;;;;5030878;28;20027;-83
2021/08/28 01:24:54;;;;;;;13.20;6.95;;;;;;;;;;5031938;28;20465;-84
2021/08/28 01:27:39;;;;;;;11.57;5.65;;;;;;;;;;5037344;28;20021;-84
2021/08/28 01:30:06;;;;;;;13.77;6.50;;;;;;;;;;5033639;28;20108;-84
2021/08/28 01:32:31;;;;;;;13.60;6.10;;;;;;;;;;5034657;28;20021;-84
2021/08/28 01:34:57;;;;;;;11.52;6.05;;;;;;;;;;5033665;28;20021;-84
2021/08/28 01:37:23;;;;;;;11.52;5.80;;;;;;;;;;5033045;28;20393;-84
2021/08/28 01:39:48;;;;;;;14.43;6.25;;;;;;;;;;5032083;28;20029;-84
2021/08/28 01:42:14;;;;;;;14.40;6.03;;;;;;;;;;5033386;28;20021;-83
2021/08/28 01:44:43;;;;;;;10.75;6.00;;;;;;;;;;5032442;28;20032;-83
2021/08/28 01:47:08;;;;;;;9.90;5.93;;;;;;;;;;5032214;28;20036;-84
2021/08/28 01:49:33;;;;;;;14.65;5.63;;;;;;;;;;5035472;28;20485;-84
2021/08/28 01:51:59;;;;;;;11.77;6.10;;;;;;;;;;5036487;28;20029;-84
2021/08/28 01:54:24;;;;;;;11.82;5.93;;;;;;;;;;5035263;28;20033;-84
2021/08/28 01:56:49;;;;;;;12.75;5.45;;;;;;;;;;5033819;28;20084;-83
2021/08/28 01:59:14;;;;;;;12.40;6.30;;;;;;;;;;5031734;28;20029;-83
2021/08/28 02:01:39;;;;;;;15.67;6.53;;;;;;;;;;5034706;28;20259;-84
2021/08/28 02:04:05;;;;;;;13.97;6.17;;;;;;;;;;5031921;28;20752;-84
2021/08/28 02:06:35;;;;;;;14.17;6.40;;;;;;;;;;5032703;28;20256;-84
2021/08/28 02:09:21;;;;;;;14.77;6.35;;;;;;;;;;5032347;28;20259;-83
2021/08/28 02:11:56;;;;;;;17.00;6.57;;;;;;;;;;5035792;28;20035;-84
2021/08/28 02:14:24;;;;;;;12.35;6.25;;;;;;;;;;5035226;28;20029;-84
2021/08/28 02:16:49;;;;;;;13.57;6.13;;;;;;;;;;5034870;28;20064;-84
2021/08/28 02:19:19;;;;;;;14.40;5.78;;;;;;;;;;5034907;28;20116;-84
2021/08/28 02:21:46;;;;;;;14.60;6.33;;;;;;;;;;5032961;28;20032;-83
2021/08/28 02:24:16;;;;;;;13.32;5.18;;;;;;;;;;5031986;28;20033;-84
2021/08/28 02:26:44;;;;;;;9.55;4.82;;;;;;;;;;5031960;28;20136;-84
2021/08/28 02:29:21;;;;;;;10.88;5.13;;;;;;;;;;5034237;28;20024;-84
2021/08/28 02:31:47;;;;;;;18.50;6.03;;;;;;;;;;5032834;28;20018;-84
2021/08/28 02:34:13;;;;;;;13.02;5.03;;;;;;;;;;5032737;28;20098;-83
2021/08/28 02:36:41;;;;;;;9.40;4.68;;;;;;;;;;5035226;28;20040;-84
2021/08/28 02:39:08;;;;;;;16.77;5.50;;;;;;;;;;5036410;28;20021;-84
2021/08/28 02:41:33;;;;;;;13.32;5.70;;;;;;;;;;5034230;28;20033;-84
2021/08/28 02:43:59;;;;;;;11.10;4.90;;;;;;;;;;5031484;28;20029;-84
2021/08/28 02:46:26;;;;;;;16.67;4.40;;;;;;;;;;5031754;28;20013;-84
2021/08/28 02:48:51;;;;;;;9.30;4.55;;;;;;;;;;5031446;28;20734;-83
2021/08/28 02:51:17;;;;;;;7.78;4.57;;;;;;;;;;5029329;28;20029;-84
2021/08/28 02:53:46;;;;;;;7.97;4.07;;;;;;;;;;5032064;28;20033;-84
2021/08/28 02:56:13;;;;;;;15.88;4.60;;;;;;;;;;5032208;28;20775;-83
2021/08/28 02:58:38;;;;;;;11.85;4.63;;;;;;;;;;5030972;28;20060;-84
2021/08/28 03:01:05;;;;;;;12.75;4.10;;;;;;;;;;5034875;28;20026;-84
2021/08/28 03:03:31;;;;;;;15.50;4.60;;;;;;;;;;5034721;28;20061;-84
2021/08/28 03:05:56;;;;;;;11.38;4.35;;;;;;;;;;5032190;28;20064;-84
2021/08/28 03:08:22;;;;;;;12.10;4.13;;;;;;;;;;5030460;28;20040;-84
2021/08/28 03:10:49;;;;;;;9.18;3.80;;;;;;;;;;5029764;28;20021;-83
2021/08/28 03:13:14;;;;;;;11.95;4.20;;;;;;;;;;5029216;28;20033;-83
2021/08/28 03:15:41;;;;;;;10.07;4.78;;;;;;;;;;5030444;28;20049;-83
2021/08/28 03:18:08;;;;;;;9.35;3.60;;;;;;;;;;5028664;28;20120;-83
2021/08/28 03:20:34;;;;;;;8.25;3.83;;;;;;;;;;5029650;28;20029;-84
2021/08/28 03:22:59;;;;;;;11.65;3.75;;;;;;;;;;5034132;28;20033;-84
2021/08/28 03:25:25;;;;;;;9.63;3.78;;;;;;;;;;5035978;28;20110;-84
2021/08/28 03:27:50;;;;;;;23.15;4.45;;;;;;;;;;5034381;28;20065;-84
2021/08/28 03:30:18;;;;;;;14.75;4.20;;;;;;;;;;5031264;28;20036;-84
2021/08/28 03:32:44;;;;;;;10.82;3.95;;;;;;;;;;5031207;28;20101;-84
2021/08/28 03:35:10;;;;;;;9.05;3.30;;;;;;;;;;5030775;28;20060;-84
2021/08/28 03:37:36;;;;;;;14.93;4.57;;;;;;;;;;5030235;28;20017;-83
2021/08/28 03:40:02;;;;;;;12.32;3.38;;;;;;;;;;5030601;28;20037;-84
2021/08/28 03:42:27;;;;;;;9.73;3.33;;;;;;;;;;5030134;28;20370;-84
2021/08/28 03:44:56;;;;;;;9.77;3.50;;;;;;;;;;5033037;28;20099;-84
2021/08/28 03:47:21;;;;;;;8.75;3.30;;;;;;;;;;5036637;28;20733;-84
2021/08/28 03:49:46;;;;;;;11.43;3.30;;;;;;;;;;5038536;28;20024;-84
2021/08/28 03:52:11;;;;;;;8.53;3.10;;;;;;;;;;5036971;28;20018;-84
2021/08/28 03:54:36;;;;;;;13.47;3.17;;;;;;;;;;5033651;28;20260;-84
2021/08/28 03:57:02;;;;;;;8.73;2.70;;;;;;;;;;5033337;28;20569;-84
2021/08/28 03:59:27;;;;;;;7.80;3.20;;;;;;;;;;5034124;28;20263;-84
2021/08/28 04:01:53;;;;;;;6.13;2.53;;;;;;;;;;5032325;28;20520;-84
2021/08/28 04:04:19;;;;;;;7.70;2.00;;;;;;;;;;5033460;28;20823;-83
2021/08/28 04:06:44;;;;;;;10.27;2.75;;;;;;;;;;5037675;28;20099;-84
2021/08/28 04:09:09;;;;;;;5.73;2.20;;;;;;;;;;5037281;28;20049;-84
2021/08/28 04:11:34;;;;;;;8.02;2.30;;;;;;;;;;5035508;28;20394;-84
2021/08/28 04:13:59;;;;;;;9.05;2.58;;;;;;;;;;5036266;28;20472;-84
2021/08/28 04:16:25;;;;;;;3.33;1.80;;;;;;;;;;5035627;28;20052;-83
2021/08/28 04:18:50;;;;;;;9.00;2.37;;;;;;;;;;5033015;28;20279;-84
2021/08/28 04:21:15;;;;;;;5.00;2.43;;;;;;;;;;5032377;28;20264;-84
2021/08/28 04:23:41;;;;;;;7.00;1.90;;;;;;;;;;5031886;28;20107;-83
2021/08/28 04:26:06;;;;;;;9.63;2.22;;;;;;;;;;5034086;28;20026;-84
2021/08/28 04:28:31;;;;;;;7.22;2.10;;;;;;;;;;5039267;28;20025;-84
2021/08/28 04:30:56;;;;;;;6.77;2.07;;;;;;;;;;5037834;28;20029;-84
2021/08/28 04:33:21;;;;;;;8.27;2.60;;;;;;;;;;5036869;28;20266;-84
2021/08/28 04:35:47;;;;;;;6.30;2.00;;;;;;;;;;5036488;28;20263;-84
2021/08/28 04:38:12;;;;;;;7.67;1.87;;;;;;;;;;5033318;28;20382;-83
2021/08/28 04:40:38;;;;;;;10.03;2.30;;;;;;;;;;5034155;28;20061;-83
2021/08/28 04:43:03;;;;;;;10.32;2.53;;;;;;;;;;5033692;28;20260;-84
2021/08/28 04:45:28;;;;;;;9.60;2.22;;;;;;;;;;5031811;28;20030;-83
2021/08/28 04:47:53;;;;;;;8.40;2.13;;;;;;;;;;5033922;28;20036;-84
2021/08/28 04:50:19;;;;;;;12.90;2.90;;;;;;;;;;5038432;28;20020;-84
2021/08/28 04:52:44;;;;;;;5.05;1.88;;;;;;;;;;5035955;28;20057;-84
2021/08/28 04:55:09;;;;;;;6.88;2.42;;;;;;;;;;5036301;28;20037;-84
2021/08/28 04:57:34;;;;;;;10.93;2.33;;;;;;;;;;5035125;28;20032;-84
2021/08/28 04:59:59;;;;;;;9.13;2.33;;;;;;;;;;5035054;28;20260;-84
2021/08/28 05:02:25;;;;;;;6.27;2.00;;;;;;;;;;5035319;28;20278;-84
2021/08/28 05:04:50;;;;;;;8.97;2.50;;;;;;;;;;5032337;28;20029;-83
2021/08/28 05:07:15;;;;;;;8.70;2.40;;;;;;;;;;5033821;28;20584;-84
2021/08/28 05:09:40;;;;;;;7.72;2.42;;;;;;;;;;5033718;28;20076;-83
2021/08/28 05:12:05;;;;;;;9.23;2.23;;;;;;;;;;5032874;28;20036;-83
2021/08/28 05:14:31;;;;;;;4.07;2.07;;;;;;;;;;5035347;28;20025;-84
2021/08/28 05:16:56;;;;;;;7.27;2.47;;;;;;;;;;5037054;28;20296;-83
2021/08/28 05:19:21;;;;;;;7.10;1.87;;;;;;;;;;5036333;28;20500;-84
2021/08/28 05:21:46;;;;;;;9.93;2.67;;;;;;;;;;5035887;28;20086;-83
2021/08/28 05:24:12;;;;;;;6.15;2.50;;;;;;;;;;5034111;28;20256;-84
2021/08/28 05:26:37;;;;;;;7.15;1.95;;;;;;;;;;5031861;28;20775;-84
2021/08/28 05:29:02;;;;;;;16.40;3.07;;;;;;;;;;5033731;28;20363;-84
2021/08/28 05:31:27;;;;;;;9.50;2.27;;;;;;;;;;5033544;28;20288;-84
2021/08/28 05:33:53;;;;;;;10.07;2.27;;;;;;;;;;5032699;28;20022;-84
2021/08/28 05:36:18;;;;;;;10.30;2.37;;;;;;;;;;5031308;28;20632;-83
2021/08/28 05:38:43;;;;;;;7.10;1.90;;;;;;;;;;5037514;28;20323;-84
2021/08/28 05:41:08;;;;;;;11.90;2.50;;;;;;;;;;5034198;28;20264;-84
2021/08/28 05:43:34;;;;;;;10.35;2.15;;;;;;;;;;5035063;28;20022;-84
2021/08/28 05:45:59;;;;;;;6.32;1.60;;;;;;;;;;5032956;28;20044;-84
2021/08/28 05:48:24;;;;;;;4.87;1.87;;;;;;;;;;5034002;28;20032;-84
2021/08/28 05:50:49;;;;;;;11.25;1.80;;;;;;;;;;5032388;28;20755;-84
2021/08/28 05:53:15;;;;;;;8.57;2.10;;;;;;;;;;5031924;28;20383;-83
2021/08/28 05:55:40;;;;;;;12.70;1.98;;;;;;;;;;5032862;28;20100;-83
2021/08/28 05:58:05;;;;;;;5.90;1.80;;;;;;;;;;5030831;28;20025;-84
2021/08/28 06:00:30;;;;;;;6.20;2.23;;;;;;;;;;5033699;28;20775;-84
2021/08/28 06:02:55;;;;;;;8.33;2.30;;;;;;;;;;5037810;28;20274;-84
2021/08/28 06:05:21;;;;;;;5.53;1.53;;;;;;;;;;5034370;28;20287;-84
2021/08/28 06:07:46;;;;;;;5.83;1.30;;;;;;;;;;5033561;28;20740;-84
2021/08/28 06:10:11;;;;;;;4.57;1.80;;;;;;;;;;5032707;28;20330;-84
2021/08/28 06:12:36;;;;;;;5.85;1.60;;;;;;;;;;5031752;28;20256;-84
2021/08/28 06:15:02;;;;;;;11.88;1.90;;;;;;;;;;5032007;28;20036;-83
2021/08/28 06:17:27;;;;;;;15.15;2.28;;;;;;;;;;5031845;28;20029;-84
2021/08/28 06:19:53;;;;;;;11.67;2.00;;;;;;;;;;5032562;28;20029;-83
2021/08/28 06:22:19;;;;;;;10.52;2.42;;;;;;;;;;5035415;28;20026;-84
2021/08/28 06:24:44;;;;;;;7.88;2.05;;;;;;;;;;5036316;28;20428;-84
2021/08/28 06:27:10;;;;;;;6.97;1.73;;;;;;;;;;5035757;28;20021;-84
2021/08/28 06:29:35;;;;;;;6.30;1.80;;;;;;;;;;5033772;28;20064;-84
2021/08/28 06:32:00;;;;;;;5.75;1.52;;;;;;;;;;5032835;28;20021;-84
2021/08/28 06:34:26;;;;;;;3.67;1.50;;;;;;;;;;5031873;28;20021;-84
2021/08/28 06:36:51;;;;;;;9.40;1.80;;;;;;;;;;5030112;28;20120;-84
2021/08/28 06:39:16;;;;;;;4.57;1.40;;;;;;;;;;5031058;28;20021;-84
2021/08/28 06:41:41;;;;;;;5.82;1.70;;;;;;;;;;5029840;28;20075;-84
2021/08/28 06:44:06;;;;;;;5.53;1.42;;;;;;;;;;5032535;28;20104;-84
2021/08/28 06:46:32;;;;;;;6.60;1.77;;;;;;;;;;5035241;28;20021;-84
2021/08/28 06:48:57;;;;;;;4.80;1.45;;;;;;;;;;5033404;28;20022;-84
2021/08/28 06:51:23;;;;;;;8.05;1.33;;;;;;;;;;5033525;28;20116;-84
2021/08/28 06:53:49;;;;;;;6.63;1.50;;;;;;;;;;5033689;28;20053;-84
2021/08/28 06:56:15;;;;;;;7.18;2.15;;;;;;;;;;5033110;28;20526;-84
2021/08/28 06:58:40;;;;;;;6.53;1.30;;;;;;;;;;5031815;28;20112;-84
2021/08/28 07:01:05;;;;;;;9.20;1.53;;;;;;;;;;5031820;28;20065;-82
2021/08/28 07:03:30;;;;;;;6.03;1.23;;;;;;;;;;5031298;28;20389;-84
2021/08/28 07:05:55;;;;;;;7.97;1.50;;;;;;;;;;5029256;28;20287;-84
2021/08/28 07:08:21;;;;;;;6.17;1.20;;;;;;;;;;5034085;28;20025;-84
2021/08/28 07:10:46;;;;;;;4.97;1.30;;;;;;;;;;5036435;28;20260;-84
2021/08/28 07:13:12;;;;;;;4.32;1.30;;;;;;;;;;5033110;28;20260;-84
2021/08/28 07:15:37;;;;;;;4.50;1.35;;;;;;;;;;5030937;28;20049;-84
2021/08/28 07:18:02;;;;;;;5.72;1.40;;;;;;;;;;5031908;28;20090;-84
2021/08/28 07:20:28;;;;;;;3.55;1.38;;;;;;;;;;5031474;28;20106;-84
2021/08/28 07:22:53;;;;;;;7.13;1.70;;;;;;;;;;5033128;28;20018;-84
2021/08/28 07:25:18;;;;;;;5.17;1.00;;;;;;;;;;5035073;28;20030;-83
2021/08/28 07:27:44;;;;;;;3.20;1.23;;;;;;;;;;5035509;28;20275;-84
2021/08/28 07:30:09;;;;;;;6.50;1.50;;;;;;;;;;5040847;28;20474;-84
2021/08/28 07:32:34;;;;;;;6.50;1.45;;;;;;;;;;5038385;28;20264;-84
2021/08/28 07:35:00;;;;;;;6.07;1.63;;;;;;;;;;5037466;28;20458;-84
2021/08/28 07:37:25;;;;;;;3.60;1.15;;;;;;;;;;5035318;28;20420;-84
2021/08/28 07:39:50;;;;;;;5.32;1.42;;;;;;;;;;5035120;28;20061;-83
2021/08/28 07:42:16;;;;;;;5.15;1.33;;;;;;;;;;5035390;28;20083;-83
2021/08/28 07:44:41;;;;;;;3.05;1.10;;;;;;;;;;5033951;28;20456;-84
2021/08/28 07:47:06;;;;;;;5.93;1.50;;;;;;;;;;5035670;28;20060;-84
2021/08/28 07:49:31;;;;;;;8.07;1.52;;;;;;;;;;5040472;28;20335;-84
2021/08/28 07:51:56;;;;;;;6.43;2.37;;;;;;;;;;5037160;28;20021;-84
2021/08/28 07:54:22;;;;;;;27.13;4.57;;;;;;;;;;5035544;28;20265;-84
2021/08/28 07:56:47;;;;;;;18.10;3.40;;;;;;;;;;5036550;28;20497;-84
2021/08/28 07:59:12;;;;;;;6.82;1.65;;;;;;;;;;5035879;28;20728;-84
2021/08/28 08:01:37;;;;;;;8.07;1.65;;;;;;;;;;5035093;28;20018;-84
2021/08/28 08:04:03;;;;;;;9.20;1.97;;;;;;;;;;5032639;28;20359;-84
2021/08/28 08:06:28;;;;;;;10.00;1.77;;;;;;;;;;5032316;28;20033;-84
2021/08/28 08:08:53;;;;;;;4.03;1.20;;;;;;;;;;5034670;28;20719;-84
2021/08/28 08:11:19;;;;;;;12.85;2.03;;;;;;;;;;5034644;28;20036;-84
2021/08/28 08:13:44;;;;;;;8.30;1.73;;;;;;;;;;5037604;28;20025;-84
2021/08/28 08:16:09;;;;;;;7.40;2.03;;;;;;;;;;5038396;28;20292;-84
2021/08/28 08:18:35;;;;;;;3.28;1.30;;;;;;;;;;5037319;28;20027;-84
2021/08/28 08:21:00;;;;;;;5.70;1.27;;;;;;;;;;5035496;28;20033;-84
2021/08/28 08:23:25;;;;;;;3.67;1.70;;;;;;;;;;5034440;28;20270;-84
2021/08/28 08:25:50;;;;;;;3.28;1.13;;;;;;;;;;5031626;28;20719;-84
2021/08/28 08:28:15;;;;;;;4.37;1.10;;;;;;;;;;5032274;28;20029;-84
2021/08/28 08:30:41;;;;;;;2.17;1.00;;;;;;;;;;5032292;28;20256;-84
2021/08/28 08:33:06;;;;;;;3.50;1.40;;;;;;;;;;5030173;28;20302;-84
2021/08/28 08:35:31;;;;;;;6.77;1.77;;;;;;;;;;5035018;28;20028;-84
2021/08/28 08:37:57;;;;;;;6.70;1.37;;;;;;;;;;5036920;28;20252;-84
2021/08/28 08:40:23;;;;;;;5.88;1.95;;;;;;;;;;5034728;28;20264;-84
2021/08/28 08:42:49;;;;;;;3.63;1.10;;;;;;;;;;5036158;28;20073;-84
2021/08/28 08:45:14;;;;;;;3.45;1.10;;;;;;;;;;5034757;28;20568;-84
2021/08/28 08:47:40;;;;;;;3.65;1.42;;;;;;;;;;5032358;28;20029;-84
2021/08/28 08:50:06;;;;;;;6.05;1.40;;;;;;;;;;5033063;28;20022;-83
2021/08/28 08:52:31;;;;;;;6.10;1.70;;;;;;;;;;5032632;28;20029;-83
2021/08/28 08:54:57;;;;;;;2.92;1.58;;;;;;;;;;5030714;28;20025;-83
2021/08/28 08:57:22;;;;;;;1.70;1.17;;;;;;;;;;5032375;28;20029;-83
2021/08/28 08:59:48;;;;;;;3.55;1.17;;;;;;;;;;5032360;28;20031;-84
2021/08/28 09:02:13;;;;;;;9.52;1.60;;;;;;;;;;5037381;28;20067;-84
2021/08/28 09:04:39;;;;;;;5.93;1.58;;;;;;;;;;5037803;28;20052;-84
2021/08/28 09:07:06;;;;;;;4.37;1.13;;;;;;;;;;5036859;28;20045;-84
2021/08/28 09:09:31;;;;;;;3.65;1.10;;;;;;;;;;5035684;28;20686;-85
2021/08/28 09:11:56;;;;;;;4.13;1.55;;;;;;;;;;5033951;28;20025;-84
2021/08/28 09:14:22;;;;;;;4.57;1.30;;;;;;;;;;5033754;28;20021;-84
2021/08/28 09:16:48;;;;;;;5.03;1.35;;;;;;;;;;4995098;28;1109932;-84
2021/08/28 09:19:13;;;;;;;11.07;1.67;;;;;;;;;;5034188;28;20033;-83
2021/08/28 09:21:39;;;;;;;5.32;1.35;;;;;;;;;;5031655;28;20026;-83
2021/08/28 09:24:05;;;;;;;4.70;1.70;;;;;;;;;;5031155;28;20017;-83
2021/08/28 09:26:35;;;;;;;6.85;1.35;;;;;;;;;;5035872;28;20481;-84
2021/08/28 09:29:01;;;;;;;3.10;1.50;;;;;;;;;;5037442;28;20025;-84
2021/08/28 09:31:35;;;;;;;5.32;1.52;;;;;;;;;;5035982;28;20079;-84
2021/08/28 09:34:16;;;;;;;5.47;1.52;;;;;;;;;;5032507;28;20068;-84
2021/08/28 09:36:41;;;;;;;5.25;1.60;;;;;;;;;;5033282;28;20018;-83
2021/08/28 09:39:06;;;;;;;8.45;2.00;;;;;;;;;;5031437;28;20071;-84
2021/08/28 09:41:32;;;;;;;8.05;1.90;;;;;;;;;;5030829;28;20029;-83
2021/08/28 09:44:07;;;;;;;8.10;2.10;;;;;;;;;;5032406;28;20024;-83
2021/08/28 09:46:32;;;;;;;5.45;1.90;;;;;;;;;;5030358;28;20025;-84
2021/08/28 09:48:59;;;;;;;3.37;1.63;;;;;;;;;;5039403;28;20473;-84
2021/08/28 09:51:24;;;;;;;5.95;2.25;;;;;;;;;;5036797;28;20267;-84
2021/08/28 09:53:57;;;;;;;5.63;1.80;;;;;;;;;;5034474;28;20026;-84
2021/08/28 09:56:24;;;;;;;6.57;2.25;;;;;;;;;;5033538;28;20025;-84
2021/08/28 09:58:50;;;;;;;5.80;2.15;;;;;;;;;;5032873;28;20051;-83
2021/08/28 10:01:19;;;;;;;5.30;2.93;;;;;;;;;;5030535;28;20136;-84
2021/08/28 10:03:56;;;;;;;6.80;2.22;;;;;;;;;;5032552;28;20395;-84
2021/08/28 10:06:21;;;;;;;6.88;2.35;;;;;;;;;;5033179;28;20083;-83
2021/08/28 10:08:46;;;;;;;8.13;2.15;;;;;;;;;;5030751;28;20470;-84
2021/08/28 10:11:11;;;;;;;4.32;2.47;;;;;;;;;;5035290;28;20078;-83
2021/08/28 10:13:37;;;;;;;7.03;2.60;;;;;;;;;;5035620;28;20031;-83
2021/08/28 10:16:03;;;;;;;5.00;2.38;;;;;;;;;;5034235;28;20072;-84
2021/08/28 10:18:28;;;;;;;6.38;2.97;;;;;;;;;;5033075;28;20072;-83
2021/08/28 10:20:55;;;;;;;7.75;2.80;;;;;;;;;;5032683;28;20080;-83
2021/08/28 10:23:21;;;;;;;9.40;3.63;;;;;;;;;;5031906;28;20052;-83
2021/08/28 10:25:47;;;;;;;5.95;3.25;;;;;;;;;;5031705;28;20064;-84
2021/08/28 10:28:13;;;;;;;5.95;2.88;;;;;;;;;;5031185;28;20029;-84
2021/08/28 10:30:38;;;;;;;9.18;4.00;;;;;;;;;;5031110;28;20023;-84
2021/08/28 10:33:04;;;;;;;7.57;3.13;;;;;;;;;;5036696;28;20034;-84
2021/08/28 10:35:29;;;;;;;9.50;2.60;;;;;;;;;;5037531;28;20263;-84
2021/08/28 10:37:55;;;;;;;10.27;2.97;;;;;;;;;;5033244;28;20037;-84
2021/08/28 10:40:25;;;;;;;5.88;3.45;;;;;;;;;;5034343;28;20121;-84
2021/08/28 10:42:52;;;;;;;8.93;3.20;;;;;;;;;;5032837;28;20030;-84
2021/08/28 10:45:24;;;;;;;9.05;3.53;;;;;;;;;;5030094;28;20102;-84
2021/08/28 10:47:55;;;;;;;11.02;2.95;;;;;;;;;;5031377;28;20029;-83
2021/08/28 10:50:20;;;;;;;4.72;2.42;;;;;;;;;;5030953;28;20025;-84
2021/08/28 10:52:49;;;;;;;6.32;3.25;;;;;;;;;;5029286;28;20030;-83
2021/08/28 10:55:14;;;;;;;7.72;3.42;;;;;;;;;;5029089;28;20450;-83
2021/08/28 10:57:40;;;;;;;9.52;3.10;;;;;;;;;;5030447;28;20076;-84
2021/08/28 11:00:05;;;;;;;5.13;2.63;;;;;;;;;;5037831;28;20104;-84
2021/08/28 11:02:49;;;;;;;9.13;3.03;;;;;;;;;;5035235;28;20030;-84
2021/08/28 11:05:15;;;;;;;5.43;2.60;;;;;;;;;;5033065;28;20017;-84
2021/08/28 11:07:42;;;;;;;3.05;2.42;;;;;;;;;;5032836;28;20025;-84
2021/08/28 11:10:10;;;;;;;7.20;2.40;;;;;;;;;;5031794;28;20029;-84
2021/08/28 11:12:49;;;;;;;5.20;2.90;;;;;;;;;;5030947;28;20037;-83
2021/08/28 11:15:30;;;;;;;9.23;2.65;;;;;;;;;;5028800;28;20532;-84
2021/08/28 11:18:01;;;;;;;6.00;3.03;;;;;;;;;;5030294;28;20074;-83
2021/08/28 11:20:27;;;;;;;7.85;2.95;;;;;;;;;;5032176;28;20025;-84
2021/08/28 11:22:53;;;;;;;4.65;2.42;;;;;;;;;;5037192;28;20084;-84
2021/08/28 11:25:22;;;;;;;4.60;2.50;;;;;;;;;;5035671;28;20025;-84
2021/08/28 11:27:53;;;;;;;3.40;2.35;;;;;;;;;;5034108;28;20021;-84
2021/08/28 11:30:38;;;;;;;4.72;2.40;;;;;;;;;;5032654;28;20029;-84
2021/08/28 11:33:07;;;;;;;5.70;2.50;;;;;;;;;;5031460;28;20029;-84
2021/08/28 11:35:33;;;;;;;6.65;2.70;;;;;;;;;;5030820;28;20037;-83
2021/08/28 11:38:05;;;;;;;7.70;3.23;;;;;;;;;;5029059;28;20101;-84
2021/08/28 11:40:31;;;;;;;3.72;2.70;;;;;;;;;;5030472;28;20263;-84
2021/08/28 11:42:56;;;;;;;5.30;2.80;;;;;;;;;;5036339;28;20041;-84
2021/08/28 11:45:51;;;;;;;5.60;3.17;;;;;;;;;;5035752;28;20484;-84
2021/08/28 11:48:16;;;;;;;5.10;2.65;;;;;;;;;;5029702;28;20029;-84
2021/08/28 11:50:42;;;;;;;5.70;3.58;;;;;;;;;;5033366;28;20131;-84
2021/08/28 11:53:08;;;;;;;5.40;3.20;;;;;;;;;;5032145;28;20053;-84
2021/08/28 11:55:35;;;;;;;4.10;2.95;;;;;;;;;;5029954;28;20051;-84
2021/08/28 11:58:05;;;;;;;6.38;3.20;;;;;;;;;;5030927;28;20023;-84
2021/08/28 12:00:31;;;;;;;5.95;3.75;;;;;;;;;;5030657;28;20485;-84
2021/08/28 12:02:57;;;;;;;9.57;3.33;;;;;;;;;;5028415;28;20543;-83
2021/08/28 12:05:22;;;;;;;6.53;3.08;;;;;;;;;;5028412;28;20029;-83
2021/08/28 12:07:54;;;;;;;6.07;2.92;;;;;;;;;;5036314;28;20089;-84
2021/08/28 12:10:19;;;;;;;6.75;3.03;;;;;;;;;;5039619;28;20053;-84
2021/08/28 12:12:52;;;;;;;6.88;2.97;;;;;;;;;;5037832;28;20070;-84
2021/08/28 12:15:21;;;;;;;6.97;2.95;;;;;;;;;;5037086;28;20046;-83
2021/08/28 12:17:48;;;;;;;5.03;3.20;;;;;;;;;;5035783;28;20025;-84
2021/08/28 12:20:13;;;;;;;3.45;2.72;;;;;;;;;;5034801;28;20036;-84
2021/08/28 12:22:45;;;;;;;7.80;3.40;;;;;;;;;;5032428;28;20033;-83
2021/08/28 12:25:13;;;;;;;6.65;2.88;;;;;;;;;;5031903;28;20279;-84
2021/08/28 12:27:38;;;;;;;6.10;2.92;;;;;;;;;;5031585;28;20028;-83
2021/08/28 12:30:05;;;;;;;8.63;3.43;;;;;;;;;;5040625;28;20543;-84
2021/08/28 12:32:31;;;;;;;6.20;2.95;;;;;;;;;;5036499;28;20026;-85
2021/08/28 12:34:56;;;;;;;3.93;2.80;;;;;;;;;;5034767;28;20112;-84
2021/08/28 12:37:23;;;;;;;7.13;3.20;;;;;;;;;;5034835;28;20256;-84
2021/08/28 12:39:52;;;;;;;6.75;2.65;;;;;;;;;;5035193;28;20025;-84
2021/08/28 12:42:22;;;;;;;5.30;3.05;;;;;;;;;;5033883;28;20501;-84
2021/08/28 12:44:51;;;;;;;7.60;2.83;;;;;;;;;;5033470;28;20033;-84
2021/08/28 12:47:17;;;;;;;4.38;2.70;;;;;;;;;;5033002;28;20032;-83
2021/08/28 12:49:42;;;;;;;3.33;2.60;;;;;;;;;;5033948;28;20037;-84
2021/08/28 12:52:09;;;;;;;6.83;2.70;;;;;;;;;;5037539;28;20032;-84
2021/08/28 12:54:56;;;;;;;4.30;2.85;;;;;;;;;;5035513;28;20017;-84
2021/08/28 12:57:24;;;;;;;4.75;3.15;;;;;;;;;;5035439;28;20045;-84
2021/08/28 12:59:51;;;;;;;9.32;3.15;;;;;;;;;;5034829;28;20056;-84
2021/08/28 13:02:17;;;;;;;6.30;3.28;;;;;;;;;;5034433;28;20062;-84
2021/08/28 13:04:43;;;;;;;5.13;3.30;;;;;;;;;;5033389;28;20029;-84
2021/08/28 13:07:13;;;;;;;3.95;2.90;;;;;;;;;;5033226;28;20071;-84
2021/08/28 13:09:56;;;;;;;6.18;3.80;;;;;;;;;;5033210;28;20017;-85
2021/08/28 13:13:02;;;;;;;4.75;4.28;;;;;;;;;;5039624;28;20614;-84
2021/08/28 13:15:27;;;;;;;4.63;3.53;;;;;;;;;;4996890;28;20049;-84
2021/08/28 13:17:56;;;;;;;10.07;4.50;;;;;;;;;;5031613;28;20043;-84
2021/08/28 13:20:24;;;;;;;8.95;3.05;;;;;;;;;;5032882;28;20029;-84
2021/08/28 13:22:51;;;;;;;3.72;2.83;;;;;;;;;;5031554;28;20030;-84
2021/08/28 13:25:19;;;;;;;5.35;3.20;;;;;;;;;;5033671;28;20028;-84
2021/08/28 13:27:44;;;;;;;9.30;3.40;;;;;;;;;;5031295;28;20041;-84
2021/08/28 13:30:10;;;;;;;4.80;3.30;;;;;;;;;;5033903;28;20071;-84
2021/08/28 13:32:35;;;;;;;5.95;3.45;;;;;;;;;;5039347;28;20104;-84
2021/08/28 13:35:01;;;;;;;7.50;3.50;;;;;;;;;;5035597;28;20855;-84
2021/08/28 13:37:26;;;;;;;7.17;3.60;;;;;;;;;;5036113;28;20025;-84
2021/08/28 13:39:51;;;;;;;3.40;2.93;;;;;;;;;;5034823;28;20521;-84
2021/08/28 13:42:20;;;;;;;6.47;3.40;;;;;;;;;;5033187;28;20021;-84
2021/08/28 13:44:46;;;;;;;6.78;3.47;;;;;;;;;;5031186;28;20033;-83
2021/08/28 13:47:11;;;;;;;5.77;3.70;;;;;;;;;;5030356;28;20033;-82
2021/08/28 13:49:36;;;;;;;8.30;3.40;;;;;;;;;;5032245;28;20268;-83
2021/08/28 13:52:01;;;;;;;8.73;3.13;;;;;;;;;;5033163;28;20263;-85
2021/08/28 13:54:26;;;;;;;5.28;3.80;;;;;;;;;;5038555;28;20721;-85
2021/08/28 13:56:52;;;;;;;4.53;3.00;;;;;;;;;;5037054;28;20060;-84
2021/08/28 13:59:17;;;;;;;5.03;3.73;;;;;;;;;;5035636;28;20306;-84
2021/08/28 14:01:42;;;;;;;8.17;3.60;;;;;;;;;;5034629;28;20053;-84
2021/08/28 14:04:08;;;;;;;3.87;3.10;;;;;;;;;;5031275;28;20261;-84
2021/08/28 14:06:33;;;;;;;6.75;4.18;;;;;;;;;;5032370;28;20276;-83
2021/08/28 14:08:58;;;;;;;4.18;3.45;;;;;;;;;;5031777;28;20025;-83
2021/08/28 14:11:23;;;;;;;6.93;3.70;;;;;;;;;;5031639;28;20033;-84
2021/08/28 14:13:48;;;;;;;6.60;3.40;;;;;;;;;;5031644;28;20041;-84
2021/08/28 14:16:14;;;;;;;4.63;3.53;;;;;;;;;;5035781;28;20053;-84
2021/08/28 14:18:39;;;;;;;6.67;3.63;;;;;;;;;;5034883;28;20025;-84
2021/08/28 14:21:04;;;;;;;6.13;3.80;;;;;;;;;;5035020;28;20655;-84
2021/08/28 14:23:29;;;;;;;4.90;3.17;;;;;;;;;;5033772;28;20029;-84
2021/08/28 14:25:54;;;;;;;6.13;4.40;;;;;;;;;;5030789;28;20021;-84
2021/08/28 14:28:21;;;;;;;6.97;3.57;;;;;;;;;;5031475;28;20052;-83
2021/08/28 14:30:46;;;;;;;8.13;3.60;;;;;;;;;;5029575;28;20264;-84
2021/08/28 14:33:11;;;;;;;7.93;3.70;;;;;;;;;;5030509;28;20067;-83
2021/08/28 14:35:38;;;;;;;8.17;3.80;;;;;;;;;;5035838;28;20036;-84